sensor_id;sensor_type;location;lat;lon;timestamp;temperature;humidity
44190;DHT22;29856;52.144;5.430;2022-11-21T00:01:32;4.60;99.90
44190;DHT22;29856;52.144;5.430;2022-11-21T00:03:57;4.60;99.90
44190;DHT22;29856;52.144;5.430;2022-11-21T00:06:24;4.70;99.90
44190;DHT22;29856;52.144;5.430;2022-11-21T00:08:50;4.80;99.90
44190;DHT22;29856;52.144;5.430;2022-11-21T00:11:16;4.90;99.90
44190;DHT22;29856;52.144;5.430;2022-11-21T00:13:42;4.80;99.90
44190;DHT22;29856;52.144;5.430;2022-11-21T00:16:13;4.70;99.90
44190;DHT22;29856;52.144;5.430;2022-11-21T00:18:39;4.60;99.90
44190;DHT22;29856;52.144;5.430;2022-11-21T00:21:12;4.60;99.90
44190;DHT22;29856;52.144;5.430;2022-11-21T00:23:38;4.70;99.90
44190;DHT22;29856;52.144;5.430;2022-11-21T00:26:08;4.80;99.90
44190;DHT22;29856;52.144;5.430;2022-11-21T00:28:34;5.00;99.90
44190;DHT22;29856;52.144;5.430;2022-11-21T00:31:00;4.90;99.90
44190;DHT22;29856;52.144;5.430;2022-11-21T00:33:26;4.90;99.90
44190;DHT22;29856;52.144;5.430;2022-11-21T00:35:51;5.20;99.90
44190;DHT22;29856;52.144;5.430;2022-11-21T00:38:17;4.90;99.90
44190;DHT22;29856;52.144;5.430;2022-11-21T00:40:43;4.80;99.90
44190;DHT22;29856;52.144;5.430;2022-11-21T00:43:09;4.80;99.90
44190;DHT22;29856;52.144;5.430;2022-11-21T00:45:34;4.70;99.90
44190;DHT22;29856;52.144;5.430;2022-11-21T00:48:00;4.70;99.90
44190;DHT22;29856;52.144;5.430;2022-11-21T00:50:25;5.00;99.90
44190;DHT22;29856;52.144;5.430;2022-11-21T00:52:57;5.00;99.90
44190;DHT22;29856;52.144;5.430;2022-11-21T00:55:23;5.20;99.90
44190;DHT22;29856;52.144;5.430;2022-11-21T00:57:50;5.30;99.90
44190;DHT22;29856;52.144;5.430;2022-11-21T01:00:16;5.50;99.90
44190;DHT22;29856;52.144;5.430;2022-11-21T01:02:42;5.30;99.90
44190;DHT22;29856;52.144;5.430;2022-11-21T01:05:08;5.10;99.90
44190;DHT22;29856;52.144;5.430;2022-11-21T01:07:34;4.80;99.90
44190;DHT22;29856;52.144;5.430;2022-11-21T01:09:59;4.80;99.90
44190;DHT22;29856;52.144;5.430;2022-11-21T01:12:25;4.90;99.90
44190;DHT22;29856;52.144;5.430;2022-11-21T01:14:50;4.80;99.90
44190;DHT22;29856;52.144;5.430;2022-11-21T01:17:16;4.80;99.90
44190;DHT22;29856;52.144;5.430;2022-11-21T01:19:41;4.70;99.90
44190;DHT22;29856;52.144;5.430;2022-11-21T01:22:07;4.60;99.90
44190;DHT22;29856;52.144;5.430;2022-11-21T01:24:33;4.50;99.90
44190;DHT22;29856;52.144;5.430;2022-11-21T01:26:58;4.40;99.90
44190;DHT22;29856;52.144;5.430;2022-11-21T01:29:23;4.50;99.90
44190;DHT22;29856;52.144;5.430;2022-11-21T01:31:49;4.50;99.90
44190;DHT22;29856;52.144;5.430;2022-11-21T01:34:15;4.70;99.90
44190;DHT22;29856;52.144;5.430;2022-11-21T01:36:40;4.90;99.90
44190;DHT22;29856;52.144;5.430;2022-11-21T01:39:07;4.80;99.90
44190;DHT22;29856;52.144;5.430;2022-11-21T01:41:38;4.70;99.90
44190;DHT22;29856;52.144;5.430;2022-11-21T01:44:45;4.60;99.90
44190;DHT22;29856;52.144;5.430;2022-11-21T01:47:10;4.80;99.90
44190;DHT22;29856;52.144;5.430;2022-11-21T01:49:36;5.00;99.90
44190;DHT22;29856;52.144;5.430;2022-11-21T01:54:51;5.10;99.90
44190;DHT22;29856;52.144;5.430;2022-11-21T01:57:24;4.80;99.90
44190;DHT22;29856;52.144;5.430;2022-11-21T02:00:04;4.70;99.90
44190;DHT22;29856;52.144;5.430;2022-11-21T02:02:35;4.70;99.90
44190;DHT22;29856;52.144;5.430;2022-11-21T02:05:02;4.60;99.90
44190;DHT22;29856;52.144;5.430;2022-11-21T02:07:33;4.50;99.90
44190;DHT22;29856;52.144;5.430;2022-11-21T02:10:01;4.40;99.90
44190;DHT22;29856;52.144;5.430;2022-11-21T02:12:49;4.60;99.90
44190;DHT22;29856;52.144;5.430;2022-11-21T02:15:19;4.70;99.90
44190;DHT22;29856;52.144;5.430;2022-11-21T02:17:46;5.10;99.90
44190;DHT22;29856;52.144;5.430;2022-11-21T02:20:13;5.20;99.90
44190;DHT22;29856;52.144;5.430;2022-11-21T02:23:15;5.00;99.90
44190;DHT22;29856;52.144;5.430;2022-11-21T02:25:45;4.80;99.90
44190;DHT22;29856;52.144;5.430;2022-11-21T02:28:12;4.70;99.90
44190;DHT22;29856;52.144;5.430;2022-11-21T02:30:41;4.50;99.90
44190;DHT22;29856;52.144;5.430;2022-11-21T02:33:07;4.60;99.90
44190;DHT22;29856;52.144;5.430;2022-11-21T02:35:32;4.60;99.90
44190;DHT22;29856;52.144;5.430;2022-11-21T02:38:18;4.80;99.90
44190;DHT22;29856;52.144;5.430;2022-11-21T02:40:52;5.30;99.90
44190;DHT22;29856;52.144;5.430;2022-11-21T02:43:27;5.40;99.90
44190;DHT22;29856;52.144;5.430;2022-11-21T02:45:53;5.40;99.90
44190;DHT22;29856;52.144;5.430;2022-11-21T02:48:19;5.60;99.90
44190;DHT22;29856;52.144;5.430;2022-11-21T02:50:45;5.70;99.90
44190;DHT22;29856;52.144;5.430;2022-11-21T02:53:15;5.60;99.90
44190;DHT22;29856;52.144;5.430;2022-11-21T02:55:41;5.50;99.90
44190;DHT22;29856;52.144;5.430;2022-11-21T02:58:07;5.50;99.90
44190;DHT22;29856;52.144;5.430;2022-11-21T03:00:34;5.50;99.90
44190;DHT22;29856;52.144;5.430;2022-11-21T03:03:01;5.70;99.90
44190;DHT22;29856;52.144;5.430;2022-11-21T03:05:26;5.60;99.90
44190;DHT22;29856;52.144;5.430;2022-11-21T03:07:52;5.80;99.90
44190;DHT22;29856;52.144;5.430;2022-11-21T03:10:18;5.50;99.90
44190;DHT22;29856;52.144;5.430;2022-11-21T03:12:43;5.40;99.90
44190;DHT22;29856;52.144;5.430;2022-11-21T03:15:12;5.50;99.90
44190;DHT22;29856;52.144;5.430;2022-11-21T03:17:39;5.30;99.90
44190;DHT22;29856;52.144;5.430;2022-11-21T03:20:05;5.30;99.90
44190;DHT22;29856;52.144;5.430;2022-11-21T03:22:32;5.10;99.90
44190;DHT22;29856;52.144;5.430;2022-11-21T03:24:57;5.00;99.90
44190;DHT22;29856;52.144;5.430;2022-11-21T03:27:23;4.90;99.90
44190;DHT22;29856;52.144;5.430;2022-11-21T03:29:48;5.10;99.90
44190;DHT22;29856;52.144;5.430;2022-11-21T03:32:14;5.10;99.90
44190;DHT22;29856;52.144;5.430;2022-11-21T03:34:40;4.90;99.90
44190;DHT22;29856;52.144;5.430;2022-11-21T03:37:05;5.20;99.90
44190;DHT22;29856;52.144;5.430;2022-11-21T03:39:31;5.20;99.90
44190;DHT22;29856;52.144;5.430;2022-11-21T03:41:56;5.10;99.90
44190;DHT22;29856;52.144;5.430;2022-11-21T03:44:22;5.00;99.90
44190;DHT22;29856;52.144;5.430;2022-11-21T03:46:47;5.20;99.90
44190;DHT22;29856;52.144;5.430;2022-11-21T03:49:13;5.10;99.90
44190;DHT22;29856;52.144;5.430;2022-11-21T03:51:39;5.10;99.90
44190;DHT22;29856;52.144;5.430;2022-11-21T03:54:05;5.20;99.90
44190;DHT22;29856;52.144;5.430;2022-11-21T03:56:31;5.20;99.90
44190;DHT22;29856;52.144;5.430;2022-11-21T03:58:56;5.20;99.90
44190;DHT22;29856;52.144;5.430;2022-11-21T04:01:22;5.50;99.90
44190;DHT22;29856;52.144;5.430;2022-11-21T04:03:48;5.40;99.90
44190;DHT22;29856;52.144;5.430;2022-11-21T04:06:15;5.40;99.90
44190;DHT22;29856;52.144;5.430;2022-11-21T04:08:41;5.30;99.90
44190;DHT22;29856;52.144;5.430;2022-11-21T04:11:07;5.30;99.90
44190;DHT22;29856;52.144;5.430;2022-11-21T04:13:33;5.20;99.90
44190;DHT22;29856;52.144;5.430;2022-11-21T04:15:58;5.10;99.90
44190;DHT22;29856;52.144;5.430;2022-11-21T04:18:24;4.90;99.90
44190;DHT22;29856;52.144;5.430;2022-11-21T04:20:58;5.00;99.90
44190;DHT22;29856;52.144;5.430;2022-11-21T04:23:24;5.00;99.90
44190;DHT22;29856;52.144;5.430;2022-11-21T04:25:50;5.20;99.90
44190;DHT22;29856;52.144;5.430;2022-11-21T04:28:16;5.10;99.90
44190;DHT22;29856;52.144;5.430;2022-11-21T04:30:41;5.00;99.90
44190;DHT22;29856;52.144;5.430;2022-11-21T04:33:07;4.90;99.90
44190;DHT22;29856;52.144;5.430;2022-11-21T04:35:33;4.80;99.90
44190;DHT22;29856;52.144;5.430;2022-11-21T04:37:58;4.80;99.90
44190;DHT22;29856;52.144;5.430;2022-11-21T04:40:24;4.80;99.90
44190;DHT22;29856;52.144;5.430;2022-11-21T04:42:49;5.10;99.90
44190;DHT22;29856;52.144;5.430;2022-11-21T04:45:15;5.10;99.90
44190;DHT22;29856;52.144;5.430;2022-11-21T04:47:43;5.10;99.90
44190;DHT22;29856;52.144;5.430;2022-11-21T04:50:10;5.20;99.90
44190;DHT22;29856;52.144;5.430;2022-11-21T04:52:36;5.30;99.90
44190;DHT22;29856;52.144;5.430;2022-11-21T04:55:02;5.20;99.90
44190;DHT22;29856;52.144;5.430;2022-11-21T04:57:29;5.30;99.90
44190;DHT22;29856;52.144;5.430;2022-11-21T04:59:55;5.40;99.90
44190;DHT22;29856;52.144;5.430;2022-11-21T05:02:20;5.40;99.90
44190;DHT22;29856;52.144;5.430;2022-11-21T05:04:46;5.30;99.90
44190;DHT22;29856;52.144;5.430;2022-11-21T05:07:12;5.20;99.90
44190;DHT22;29856;52.144;5.430;2022-11-21T05:09:37;5.20;99.90
44190;DHT22;29856;52.144;5.430;2022-11-21T05:12:03;5.30;99.90
44190;DHT22;29856;52.144;5.430;2022-11-21T05:14:29;5.40;99.90
44190;DHT22;29856;52.144;5.430;2022-11-21T05:16:54;5.30;99.90
44190;DHT22;29856;52.144;5.430;2022-11-21T05:19:20;5.20;99.90
44190;DHT22;29856;52.144;5.430;2022-11-21T05:21:45;5.20;99.90
44190;DHT22;29856;52.144;5.430;2022-11-21T05:24:11;5.30;99.90
44190;DHT22;29856;52.144;5.430;2022-11-21T05:26:36;5.20;99.90
44190;DHT22;29856;52.144;5.430;2022-11-21T05:29:02;5.10;99.90
44190;DHT22;29856;52.144;5.430;2022-11-21T05:31:27;5.20;99.90
44190;DHT22;29856;52.144;5.430;2022-11-21T05:33:53;5.20;99.90
44190;DHT22;29856;52.144;5.430;2022-11-21T05:36:18;5.00;99.90
44190;DHT22;29856;52.144;5.430;2022-11-21T05:38:44;5.00;99.90
44190;DHT22;29856;52.144;5.430;2022-11-21T05:41:09;5.10;99.90
44190;DHT22;29856;52.144;5.430;2022-11-21T05:43:35;5.10;99.90
44190;DHT22;29856;52.144;5.430;2022-11-21T05:46:00;5.10;99.90
44190;DHT22;29856;52.144;5.430;2022-11-21T05:48:26;5.00;99.90
44190;DHT22;29856;52.144;5.430;2022-11-21T05:50:51;5.30;99.90
44190;DHT22;29856;52.144;5.430;2022-11-21T05:53:17;5.40;99.90
44190;DHT22;29856;52.144;5.430;2022-11-21T05:55:43;5.40;99.90
44190;DHT22;29856;52.144;5.430;2022-11-21T05:58:09;5.40;99.90
44190;DHT22;29856;52.144;5.430;2022-11-21T06:00:34;5.30;99.90
44190;DHT22;29856;52.144;5.430;2022-11-21T06:03:00;5.30;99.90
44190;DHT22;29856;52.144;5.430;2022-11-21T06:05:25;5.30;99.90
44190;DHT22;29856;52.144;5.430;2022-11-21T06:07:50;5.50;99.90
44190;DHT22;29856;52.144;5.430;2022-11-21T06:10:16;5.30;99.90
44190;DHT22;29856;52.144;5.430;2022-11-21T06:12:41;5.30;99.90
44190;DHT22;29856;52.144;5.430;2022-11-21T06:15:07;5.50;99.90
44190;DHT22;29856;52.144;5.430;2022-11-21T06:17:33;5.40;99.90
44190;DHT22;29856;52.144;5.430;2022-11-21T06:19:58;5.50;99.90
44190;DHT22;29856;52.144;5.430;2022-11-21T06:22:24;5.50;99.90
44190;DHT22;29856;52.144;5.430;2022-11-21T06:24:49;5.50;99.90
44190;DHT22;29856;52.144;5.430;2022-11-21T06:27:14;5.40;99.90
44190;DHT22;29856;52.144;5.430;2022-11-21T06:29:40;5.30;99.90
44190;DHT22;29856;52.144;5.430;2022-11-21T06:32:05;5.30;99.90
44190;DHT22;29856;52.144;5.430;2022-11-21T06:34:31;5.30;99.90
44190;DHT22;29856;52.144;5.430;2022-11-21T06:36:56;5.30;99.90
44190;DHT22;29856;52.144;5.430;2022-11-21T06:39:22;5.50;99.90
44190;DHT22;29856;52.144;5.430;2022-11-21T06:41:47;5.50;99.90
44190;DHT22;29856;52.144;5.430;2022-11-21T06:44:12;5.50;99.90
44190;DHT22;29856;52.144;5.430;2022-11-21T06:46:38;5.50;99.90
44190;DHT22;29856;52.144;5.430;2022-11-21T06:49:03;5.70;99.90
44190;DHT22;29856;52.144;5.430;2022-11-21T06:51:29;5.70;99.90
44190;DHT22;29856;52.144;5.430;2022-11-21T06:53:56;5.60;99.90
44190;DHT22;29856;52.144;5.430;2022-11-21T06:56:23;5.60;99.90
44190;DHT22;29856;52.144;5.430;2022-11-21T06:58:48;5.50;99.90
44190;DHT22;29856;52.144;5.430;2022-11-21T07:01:14;5.70;99.90
44190;DHT22;29856;52.144;5.430;2022-11-21T07:03:39;5.60;99.90
44190;DHT22;29856;52.144;5.430;2022-11-21T07:06:05;5.70;99.90
44190;DHT22;29856;52.144;5.430;2022-11-21T07:08:33;5.80;99.90
44190;DHT22;29856;52.144;5.430;2022-11-21T07:11:04;5.60;99.90
44190;DHT22;29856;52.144;5.430;2022-11-21T07:13:30;5.50;99.90
44190;DHT22;29856;52.144;5.430;2022-11-21T07:16:06;5.70;99.90
44190;DHT22;29856;52.144;5.430;2022-11-21T07:18:33;5.60;99.90
44190;DHT22;29856;52.144;5.430;2022-11-21T07:21:00;5.50;99.90
44190;DHT22;29856;52.144;5.430;2022-11-21T07:23:26;5.70;99.90
44190;DHT22;29856;52.144;5.430;2022-11-21T07:25:52;5.90;99.90
44190;DHT22;29856;52.144;5.430;2022-11-21T07:28:21;5.80;99.90
44190;DHT22;29856;52.144;5.430;2022-11-21T07:30:49;5.70;99.90
44190;DHT22;29856;52.144;5.430;2022-11-21T07:33:15;5.90;99.90
44190;DHT22;29856;52.144;5.430;2022-11-21T07:35:40;5.90;99.90
44190;DHT22;29856;52.144;5.430;2022-11-21T07:38:05;5.80;99.90
44190;DHT22;29856;52.144;5.430;2022-11-21T07:40:31;5.90;99.90
44190;DHT22;29856;52.144;5.430;2022-11-21T07:43:01;6.00;99.90
44190;DHT22;29856;52.144;5.430;2022-11-21T07:45:30;6.10;99.90
44190;DHT22;29856;52.144;5.430;2022-11-21T07:47:59;6.00;99.90
44190;DHT22;29856;52.144;5.430;2022-11-21T07:50:26;6.20;99.90
44190;DHT22;29856;52.144;5.430;2022-11-21T07:52:56;6.10;99.90
44190;DHT22;29856;52.144;5.430;2022-11-21T07:55:22;6.20;99.90
44190;DHT22;29856;52.144;5.430;2022-11-21T07:57:56;6.00;99.90
44190;DHT22;29856;52.144;5.430;2022-11-21T08:00:22;6.10;99.90
44190;DHT22;29856;52.144;5.430;2022-11-21T08:02:47;6.00;99.90
44190;DHT22;29856;52.144;5.430;2022-11-21T08:05:13;5.90;99.90
44190;DHT22;29856;52.144;5.430;2022-11-21T08:07:38;6.00;99.90
44190;DHT22;29856;52.144;5.430;2022-11-21T08:10:04;6.00;99.90
44190;DHT22;29856;52.144;5.430;2022-11-21T08:12:31;6.00;99.90
44190;DHT22;29856;52.144;5.430;2022-11-21T08:14:57;5.90;99.90
44190;DHT22;29856;52.144;5.430;2022-11-21T08:17:25;5.90;99.90
44190;DHT22;29856;52.144;5.430;2022-11-21T08:19:50;6.00;99.90
44190;DHT22;29856;52.144;5.430;2022-11-21T08:22:16;6.00;99.90
44190;DHT22;29856;52.144;5.430;2022-11-21T08:24:41;6.10;99.90
44190;DHT22;29856;52.144;5.430;2022-11-21T08:27:07;6.10;99.90
44190;DHT22;29856;52.144;5.430;2022-11-21T08:29:32;6.10;99.90
44190;DHT22;29856;52.144;5.430;2022-11-21T08:31:57;5.90;99.90
44190;DHT22;29856;52.144;5.430;2022-11-21T08:34:23;6.00;99.90
44190;DHT22;29856;52.144;5.430;2022-11-21T08:36:48;6.10;99.90
44190;DHT22;29856;52.144;5.430;2022-11-21T08:39:14;6.20;99.90
44190;DHT22;29856;52.144;5.430;2022-11-21T08:41:39;6.30;99.90
44190;DHT22;29856;52.144;5.430;2022-11-21T08:44:05;6.40;99.90
44190;DHT22;29856;52.144;5.430;2022-11-21T08:46:34;6.40;99.90
44190;DHT22;29856;52.144;5.430;2022-11-21T08:49:00;6.30;99.90
44190;DHT22;29856;52.144;5.430;2022-11-21T08:51:25;6.30;99.90
44190;DHT22;29856;52.144;5.430;2022-11-21T08:53:51;6.20;99.90
44190;DHT22;29856;52.144;5.430;2022-11-21T08:56:16;6.20;99.90
44190;DHT22;29856;52.144;5.430;2022-11-21T08:58:41;6.30;99.90
44190;DHT22;29856;52.144;5.430;2022-11-21T09:01:07;6.30;99.90
44190;DHT22;29856;52.144;5.430;2022-11-21T09:03:32;6.30;99.90
44190;DHT22;29856;52.144;5.430;2022-11-21T09:05:59;6.20;99.90
44190;DHT22;29856;52.144;5.430;2022-11-21T09:08:24;6.30;99.90
44190;DHT22;29856;52.144;5.430;2022-11-21T09:10:50;6.40;99.90
44190;DHT22;29856;52.144;5.430;2022-11-21T09:13:15;6.40;99.90
44190;DHT22;29856;52.144;5.430;2022-11-21T09:15:41;6.30;99.90
44190;DHT22;29856;52.144;5.430;2022-11-21T09:18:06;6.40;99.90
44190;DHT22;29856;52.144;5.430;2022-11-21T09:20:37;6.40;99.90
44190;DHT22;29856;52.144;5.430;2022-11-21T09:23:08;6.60;99.90
44190;DHT22;29856;52.144;5.430;2022-11-21T09:25:34;6.50;99.90
44190;DHT22;29856;52.144;5.430;2022-11-21T09:28:01;6.30;99.90
44190;DHT22;29856;52.144;5.430;2022-11-21T09:30:27;6.30;99.90
44190;DHT22;29856;52.144;5.430;2022-11-21T09:32:52;6.40;99.90
44190;DHT22;29856;52.144;5.430;2022-11-21T09:35:17;6.40;99.90
44190;DHT22;29856;52.144;5.430;2022-11-21T09:37:43;6.40;99.90
44190;DHT22;29856;52.144;5.430;2022-11-21T09:40:14;6.40;99.90
44190;DHT22;29856;52.144;5.430;2022-11-21T09:48:57;6.40;99.90
44190;DHT22;29856;52.144;5.430;2022-11-21T09:51:26;6.70;99.90
44190;DHT22;29856;52.144;5.430;2022-11-21T09:54:01;6.70;99.90
44190;DHT22;29856;52.144;5.430;2022-11-21T09:56:30;6.70;99.90
44190;DHT22;29856;52.144;5.430;2022-11-21T10:01:39;6.80;99.90
44190;DHT22;29856;52.144;5.430;2022-11-21T10:04:04;6.70;99.90
44190;DHT22;29856;52.144;5.430;2022-11-21T10:06:41;6.70;99.90
44190;DHT22;29856;52.144;5.430;2022-11-21T10:09:35;6.70;99.90
44190;DHT22;29856;52.144;5.430;2022-11-21T10:12:15;6.70;99.90
44190;DHT22;29856;52.144;5.430;2022-11-21T10:15:14;6.70;99.90
44190;DHT22;29856;52.144;5.430;2022-11-21T10:21:17;6.70;99.90
44190;DHT22;29856;52.144;5.430;2022-11-21T10:26:56;6.90;99.90
44190;DHT22;29856;52.144;5.430;2022-11-21T10:29:34;7.00;99.90
44190;DHT22;29856;52.144;5.430;2022-11-21T10:32:06;7.10;99.90
44190;DHT22;29856;52.144;5.430;2022-11-21T10:34:37;7.10;99.90
44190;DHT22;29856;52.144;5.430;2022-11-21T10:37:10;7.40;99.90
44190;DHT22;29856;52.144;5.430;2022-11-21T10:39:41;7.20;99.90
44190;DHT22;29856;52.144;5.430;2022-11-21T10:44:41;7.30;99.90
44190;DHT22;29856;52.144;5.430;2022-11-21T10:47:20;7.40;99.90
44190;DHT22;29856;52.144;5.430;2022-11-21T10:49:47;7.50;99.90
44190;DHT22;29856;52.144;5.430;2022-11-21T10:52:16;7.40;99.90
44190;DHT22;29856;52.144;5.430;2022-11-21T10:57:30;7.60;99.90
44190;DHT22;29856;52.144;5.430;2022-11-21T11:00:02;7.50;99.90
44190;DHT22;29856;52.144;5.430;2022-11-21T11:02:41;7.60;99.90
44190;DHT22;29856;52.144;5.430;2022-11-21T11:05:19;7.60;99.90
44190;DHT22;29856;52.144;5.430;2022-11-21T11:08:13;7.60;99.90
44190;DHT22;29856;52.144;5.430;2022-11-21T11:10:43;7.70;99.90
44190;DHT22;29856;52.144;5.430;2022-11-21T11:13:15;7.80;99.90
44190;DHT22;29856;52.144;5.430;2022-11-21T11:16:00;7.80;99.90
44190;DHT22;29856;52.144;5.430;2022-11-21T11:18:27;7.90;99.90
44190;DHT22;29856;52.144;5.430;2022-11-21T11:20:52;7.80;99.90
44190;DHT22;29856;52.144;5.430;2022-11-21T11:23:32;7.90;99.90
44190;DHT22;29856;52.144;5.430;2022-11-21T11:25:59;8.00;99.90
44190;DHT22;29856;52.144;5.430;2022-11-21T11:28:26;8.10;99.90
44190;DHT22;29856;52.144;5.430;2022-11-21T11:30:57;8.10;99.90
44190;DHT22;29856;52.144;5.430;2022-11-21T11:36:37;8.00;99.90
44190;DHT22;29856;52.144;5.430;2022-11-21T11:39:17;8.20;99.90
44190;DHT22;29856;52.144;5.430;2022-11-21T11:47:23;8.20;99.90
44190;DHT22;29856;52.144;5.430;2022-11-21T11:50:04;8.30;99.90
44190;DHT22;29856;52.144;5.430;2022-11-21T11:52:45;8.30;99.90
44190;DHT22;29856;52.144;5.430;2022-11-21T11:55:24;8.40;99.90
44190;DHT22;29856;52.144;5.430;2022-11-21T11:57:52;8.50;99.90
44190;DHT22;29856;52.144;5.430;2022-11-21T12:00:26;8.60;99.90
44190;DHT22;29856;52.144;5.430;2022-11-21T12:03:00;8.60;99.90
44190;DHT22;29856;52.144;5.430;2022-11-21T12:05:27;8.70;99.90
44190;DHT22;29856;52.144;5.430;2022-11-21T12:08:22;8.70;99.90
44190;DHT22;29856;52.144;5.430;2022-11-21T12:11:12;8.80;99.90
44190;DHT22;29856;52.144;5.430;2022-11-21T12:13:39;8.80;99.90
44190;DHT22;29856;52.144;5.430;2022-11-21T12:16:09;8.70;99.90
44190;DHT22;29856;52.144;5.430;2022-11-21T12:18:59;8.80;99.90
44190;DHT22;29856;52.144;5.430;2022-11-21T12:21:27;8.70;99.90
44190;DHT22;29856;52.144;5.430;2022-11-21T12:24:00;8.50;99.90
44190;DHT22;29856;52.144;5.430;2022-11-21T12:37:42;8.80;99.90
44190;DHT22;29856;52.144;5.430;2022-11-21T12:45:48;9.00;99.90
44190;DHT22;29856;52.144;5.430;2022-11-21T12:53:44;9.10;99.90
44190;DHT22;29856;52.144;5.430;2022-11-21T12:56:45;9.10;99.90
44190;DHT22;29856;52.144;5.430;2022-11-21T12:59:08;9.20;99.90
44190;DHT22;29856;52.144;5.430;2022-11-21T13:04:37;9.40;99.90
44190;DHT22;29856;52.144;5.430;2022-11-21T13:07:05;9.40;99.90
44190;DHT22;29856;52.144;5.430;2022-11-21T13:09:42;9.40;99.90
44190;DHT22;29856;52.144;5.430;2022-11-21T13:12:19;9.30;99.90
44190;DHT22;29856;52.144;5.430;2022-11-21T13:20:44;9.50;99.90
44190;DHT22;29856;52.144;5.430;2022-11-21T13:22:46;9.40;99.90
44190;DHT22;29856;52.144;5.430;2022-11-21T13:25:34;9.30;99.90
44190;DHT22;29856;52.144;5.430;2022-11-21T13:36:07;9.60;99.90
44190;DHT22;29856;52.144;5.430;2022-11-21T13:58:07;9.50;99.90
44190;DHT22;29856;52.144;5.430;2022-11-21T14:00:37;9.50;99.90
44190;DHT22;29856;52.144;5.430;2022-11-21T14:08:30;9.30;99.90
44190;DHT22;29856;52.144;5.430;2022-11-21T14:10:56;9.30;99.90
44190;DHT22;29856;52.144;5.430;2022-11-21T14:13:25;9.20;99.90
44190;DHT22;29856;52.144;5.430;2022-11-21T14:16:20;9.20;99.90
44190;DHT22;29856;52.144;5.430;2022-11-21T14:18:48;9.30;99.90
44190;DHT22;29856;52.144;5.430;2022-11-21T14:21:24;9.30;99.90
44190;DHT22;29856;52.144;5.430;2022-11-21T14:23:50;9.30;99.90
44190;DHT22;29856;52.144;5.430;2022-11-21T14:26:19;9.30;99.90
44190;DHT22;29856;52.144;5.430;2022-11-21T14:28:45;9.30;99.90
44190;DHT22;29856;52.144;5.430;2022-11-21T14:31:11;9.20;99.90
44190;DHT22;29856;52.144;5.430;2022-11-21T14:33:44;9.10;99.90
44190;DHT22;29856;52.144;5.430;2022-11-21T14:36:17;9.20;99.90
44190;DHT22;29856;52.144;5.430;2022-11-21T14:38:45;9.20;99.90
44190;DHT22;29856;52.144;5.430;2022-11-21T14:48:51;9.20;99.90
44190;DHT22;29856;52.144;5.430;2022-11-21T14:51:20;9.20;99.90
44190;DHT22;29856;52.144;5.430;2022-11-21T14:53:48;9.20;99.90
44190;DHT22;29856;52.144;5.430;2022-11-21T14:56:26;9.20;99.90
44190;DHT22;29856;52.144;5.430;2022-11-21T14:58:54;9.20;99.90
44190;DHT22;29856;52.144;5.430;2022-11-21T15:01:28;9.10;99.90
44190;DHT22;29856;52.144;5.430;2022-11-21T15:03:55;9.10;99.90
44190;DHT22;29856;52.144;5.430;2022-11-21T15:06:21;9.10;99.90
44190;DHT22;29856;52.144;5.430;2022-11-21T15:08:47;9.10;99.90
44190;DHT22;29856;52.144;5.430;2022-11-21T15:11:15;9.30;99.90
44190;DHT22;29856;52.144;5.430;2022-11-21T15:13:43;9.30;99.90
44190;DHT22;29856;52.144;5.430;2022-11-21T15:16:11;9.20;99.90
44190;DHT22;29856;52.144;5.430;2022-11-21T15:18:40;9.20;99.90
44190;DHT22;29856;52.144;5.430;2022-11-21T15:21:06;9.20;99.90
44190;DHT22;29856;52.144;5.430;2022-11-21T15:23:36;9.10;99.90
44190;DHT22;29856;52.144;5.430;2022-11-21T15:26:02;9.00;99.90
44190;DHT22;29856;52.144;5.430;2022-11-21T15:28:29;8.90;99.90
44190;DHT22;29856;52.144;5.430;2022-11-21T15:31:15;8.90;99.90
44190;DHT22;29856;52.144;5.430;2022-11-21T15:36:35;8.70;99.90
44190;DHT22;29856;52.144;5.430;2022-11-21T15:39:05;8.70;99.90
44190;DHT22;29856;52.144;5.430;2022-11-21T15:41:32;8.70;99.90
44190;DHT22;29856;52.144;5.430;2022-11-21T15:46:32;8.70;99.90
44190;DHT22;29856;52.144;5.430;2022-11-21T15:49:03;8.60;99.90
44190;DHT22;29856;52.144;5.430;2022-11-21T15:51:43;8.70;99.90
44190;DHT22;29856;52.144;5.430;2022-11-21T15:54:17;8.60;99.90
44190;DHT22;29856;52.144;5.430;2022-11-21T15:56:43;8.60;99.90
44190;DHT22;29856;52.144;5.430;2022-11-21T15:59:09;8.60;99.90
44190;DHT22;29856;52.144;5.430;2022-11-21T16:01:35;8.70;99.90
44190;DHT22;29856;52.144;5.430;2022-11-21T16:04:03;8.70;99.90
44190;DHT22;29856;52.144;5.430;2022-11-21T16:06:28;8.60;99.90
44190;DHT22;29856;52.144;5.430;2022-11-21T16:08:55;8.60;99.90
44190;DHT22;29856;52.144;5.430;2022-11-21T16:13:57;8.50;99.90
44190;DHT22;29856;52.144;5.430;2022-11-21T16:16:24;8.40;99.90
44190;DHT22;29856;52.144;5.430;2022-11-21T16:18:50;8.40;99.90
44190;DHT22;29856;52.144;5.430;2022-11-21T16:21:16;8.40;99.90
44190;DHT22;29856;52.144;5.430;2022-11-21T16:23:42;8.30;99.90
44190;DHT22;29856;52.144;5.430;2022-11-21T16:26:08;8.30;99.90
44190;DHT22;29856;52.144;5.430;2022-11-21T16:28:35;8.30;99.90
44190;DHT22;29856;52.144;5.430;2022-11-21T16:31:01;8.30;99.90
44190;DHT22;29856;52.144;5.430;2022-11-21T16:33:27;8.20;99.90
44190;DHT22;29856;52.144;5.430;2022-11-21T16:35:53;8.30;99.90
44190;DHT22;29856;52.144;5.430;2022-11-21T16:38:20;8.30;99.90
44190;DHT22;29856;52.144;5.430;2022-11-21T16:40:52;8.40;99.90
44190;DHT22;29856;52.144;5.430;2022-11-21T16:43:18;8.30;99.90
44190;DHT22;29856;52.144;5.430;2022-11-21T16:45:44;8.40;99.90
44190;DHT22;29856;52.144;5.430;2022-11-21T16:48:09;8.40;99.90
44190;DHT22;29856;52.144;5.430;2022-11-21T16:50:34;8.40;99.90
44190;DHT22;29856;52.144;5.430;2022-11-21T16:53:00;8.40;99.90
44190;DHT22;29856;52.144;5.430;2022-11-21T16:55:26;8.40;99.90
44190;DHT22;29856;52.144;5.430;2022-11-21T16:57:52;8.30;99.90
44190;DHT22;29856;52.144;5.430;2022-11-21T17:00:17;8.40;99.90
44190;DHT22;29856;52.144;5.430;2022-11-21T17:02:43;8.40;99.90
44190;DHT22;29856;52.144;5.430;2022-11-21T17:05:09;8.40;99.90
44190;DHT22;29856;52.144;5.430;2022-11-21T17:07:34;8.40;99.90
44190;DHT22;29856;52.144;5.430;2022-11-21T17:10:00;8.40;99.90
44190;DHT22;29856;52.144;5.430;2022-11-21T17:12:25;8.40;99.90
44190;DHT22;29856;52.144;5.430;2022-11-21T17:14:51;8.50;99.90
44190;DHT22;29856;52.144;5.430;2022-11-21T17:17:17;8.50;99.90
44190;DHT22;29856;52.144;5.430;2022-11-21T17:19:42;8.40;99.90
44190;DHT22;29856;52.144;5.430;2022-11-21T17:22:08;8.40;99.90
44190;DHT22;29856;52.144;5.430;2022-11-21T17:24:34;8.30;99.90
44190;DHT22;29856;52.144;5.430;2022-11-21T17:26:59;8.30;99.90
44190;DHT22;29856;52.144;5.430;2022-11-21T17:29:26;8.30;99.90
44190;DHT22;29856;52.144;5.430;2022-11-21T17:31:51;8.30;99.90
44190;DHT22;29856;52.144;5.430;2022-11-21T17:34:17;8.30;99.90
44190;DHT22;29856;52.144;5.430;2022-11-21T17:36:42;8.20;99.90
44190;DHT22;29856;52.144;5.430;2022-11-21T17:39:08;8.20;99.90
44190;DHT22;29856;52.144;5.430;2022-11-21T17:41:33;8.30;99.90
44190;DHT22;29856;52.144;5.430;2022-11-21T17:43:59;8.40;99.90